Time;durP1;ratioP1;P1;durP2;ratioP2;P2;SDS_P1;SDS_P2;PMS_P1;PMS_P2;Temp;Humidity;BMP_temperature;BMP_pressure;BME280_temperature;BME280_humidity;BME280_pressure;Samples;Min_cycle;Max_cycle;Signal;HPM_P1;HPM_P2
2021/11/13 00:00:24;;;;;;;25.27;19.33;;;7.50;99.90;;;;;;4961346;28;20243;-77
2021/11/13 00:02:52;;;;;;;29.83;20.55;;;7.60;99.90;;;;;;4968591;28;20236;-77
2021/11/13 00:05:20;;;;;;;28.38;19.92;;;7.70;99.90;;;;;;4957913;28;20646;-78
2021/11/13 00:07:47;;;;;;;34.60;20.58;;;7.80;99.90;;;;;;4959869;28;20214;-77
2021/11/13 00:10:18;;;;;;;26.27;20.58;;;7.80;99.90;;;;;;4952437;29;20218;-78
2021/11/13 00:12:45;;;;;;;30.92;21.05;;;7.90;99.90;;;;;;4953668;28;20206;-79
2021/11/13 00:15:18;;;;;;;30.45;22.00;;;7.90;99.90;;;;;;4954868;28;20202;-79
2021/11/13 00:17:45;;;;;;;28.33;22.30;;;7.80;99.90;;;;;;4942442;28;20213;-76
2021/11/13 00:20:12;;;;;;;30.90;19.20;;;7.80;99.90;;;;;;4948577;28;20507;-78
2021/11/13 00:22:40;;;;;;;27.92;19.58;;;7.80;99.90;;;;;;4958101;28;20268;-78
2021/11/13 00:25:08;;;;;;;27.20;19.88;;;7.90;99.90;;;;;;4955031;28;20644;-78
2021/11/13 00:27:36;;;;;;;24.88;19.10;;;7.90;99.90;;;;;;4957012;28;20253;-79
2021/11/13 00:30:04;;;;;;;25.88;19.50;;;7.90;99.90;;;;;;4954299;28;20673;-78
2021/11/13 00:32:31;;;;;;;27.02;20.63;;;7.80;99.90;;;;;;4955066;28;20257;-78
2021/11/13 00:34:58;;;;;;;27.15;20.33;;;7.90;99.90;;;;;;4969388;28;20214;-79
2021/11/13 00:37:26;;;;;;;28.25;20.75;;;8.00;99.90;;;;;;4955781;28;20234;-77
2021/11/13 00:39:53;;;;;;;27.33;19.92;;;8.00;99.90;;;;;;4954647;28;20207;-76
2021/11/13 00:42:20;;;;;;;27.45;20.02;;;8.00;99.90;;;;;;4959283;28;20250;-77
2021/11/13 00:44:49;;;;;;;27.13;19.65;;;8.00;99.90;;;;;;4963278;28;20269;-78
2021/11/13 00:47:16;;;;;;;32.80;19.63;;;8.00;99.90;;;;;;4963642;28;20254;-79
2021/11/13 00:49:44;;;;;;;27.98;19.60;;;8.00;99.90;;;;;;4970424;28;20210;-75
2021/11/13 00:52:11;;;;;;;25.15;18.42;;;8.00;99.90;;;;;;4961904;28;20290;-77
2021/11/13 00:54:39;;;;;;;26.13;20.55;;;8.00;99.90;;;;;;4975400;28;20252;-77
2021/11/13 00:57:08;;;;;;;22.83;17.98;;;8.00;99.90;;;;;;4967818;28;20235;-76
2021/11/13 00:59:38;;;;;;;29.23;20.85;;;8.10;99.90;;;;;;4961767;28;20334;-76
2021/11/13 01:02:07;;;;;;;29.00;18.95;;;8.10;99.90;;;;;;4961489;28;20254;-76
2021/11/13 01:04:35;;;;;;;31.40;20.70;;;8.20;99.90;;;;;;4963831;28;20205;-78
2021/11/13 01:07:02;;;;;;;22.85;19.17;;;8.20;99.90;;;;;;4969179;28;20292;-78
2021/11/13 01:09:29;;;;;;;28.70;17.27;;;8.30;99.90;;;;;;4953679;28;20235;-76
2021/11/13 01:11:57;;;;;;;28.58;19.80;;;8.30;99.90;;;;;;4959249;28;20290;-78
2021/11/13 01:14:25;;;;;;;23.52;17.67;;;8.30;99.90;;;;;;4961667;28;20203;-79
2021/11/13 01:16:52;;;;;;;25.17;18.20;;;8.30;99.90;;;;;;4965475;28;20222;-79
2021/11/13 01:19:21;;;;;;;26.15;18.27;;;8.40;99.90;;;;;;4964467;28;20217;-78
2021/11/13 01:21:48;;;;;;;32.35;19.27;;;8.30;99.90;;;;;;4960338;28;20202;-76
2021/11/13 01:24:16;;;;;;;20.60;17.50;;;8.50;99.90;;;;;;4973021;28;20636;-78
2021/11/13 01:26:43;;;;;;;25.42;16.65;;;8.50;99.90;;;;;;4953081;28;20290;-78
2021/11/13 01:29:10;;;;;;;24.15;18.00;;;8.40;99.90;;;;;;4962806;28;20669;-76
2021/11/13 01:31:37;;;;;;;23.15;16.42;;;8.40;99.90;;;;;;4979288;28;20229;-77
2021/11/13 01:34:04;;;;;;;23.02;16.27;;;8.50;99.90;;;;;;4959763;28;20236;-79
2021/11/13 01:36:32;;;;;;;22.50;16.48;;;8.60;99.90;;;;;;4959966;28;20258;-77
2021/11/13 01:38:59;;;;;;;28.15;17.33;;;8.60;99.90;;;;;;4944822;29;20211;-76
2021/11/13 01:41:27;;;;;;;20.17;14.25;;;8.60;99.90;;;;;;4956688;29;20622;-77
2021/11/13 01:43:54;;;;;;;20.48;15.60;;;8.60;99.90;;;;;;4948027;29;20235;-76
2021/11/13 01:46:22;;;;;;;19.00;14.82;;;8.70;99.90;;;;;;4945033;29;20287;-78
2021/11/13 01:48:49;;;;;;;24.40;16.38;;;8.60;99.90;;;;;;4962337;28;20274;-78
2021/11/13 01:51:21;;;;;;;20.85;15.55;;;8.70;99.90;;;;;;4946011;28;20250;-77
2021/11/13 01:53:51;;;;;;;19.92;14.85;;;8.70;99.90;;;;;;4949072;29;20661;-77
2021/11/13 01:56:21;;;;;;;22.73;15.15;;;8.70;99.90;;;;;;4946511;29;20251;-76
2021/11/13 01:58:49;;;;;;;21.58;16.50;;;8.70;99.90;;;;;;4949473;29;20257;-75
2021/11/13 02:01:16;;;;;;;25.10;16.58;;;8.70;99.90;;;;;;4957135;28;20519;-76
2021/11/13 02:03:46;;;;;;;21.30;14.93;;;8.80;99.90;;;;;;4949970;29;20207;-77
2021/11/13 02:06:14;;;;;;;20.05;14.40;;;8.90;99.90;;;;;;4948086;29;20265;-78
2021/11/13 02:08:42;;;;;;;22.30;14.70;;;8.90;99.90;;;;;;4951514;29;20262;-78
2021/11/13 02:11:11;;;;;;;18.00;12.95;;;8.90;99.90;;;;;;4954058;29;20696;-78
2021/11/13 02:13:38;;;;;;;18.80;13.85;;;9.00;99.90;;;;;;4945801;29;20618;-79
2021/11/13 02:16:06;;;;;;;20.33;14.57;;;9.00;99.90;;;;;;4954766;29;20226;-79
2021/11/13 02:18:34;;;;;;;17.85;12.55;;;8.90;99.90;;;;;;4952080;29;20215;-79
2021/11/13 02:21:03;;;;;;;19.67;13.68;;;9.00;99.90;;;;;;4960388;28;20229;-77
2021/11/13 02:23:30;;;;;;;16.70;13.52;;;9.00;99.90;;;;;;4951179;28;20262;-79
2021/11/13 02:25:57;;;;;;;21.27;14.77;;;9.10;99.90;;;;;;4942791;29;20281;-77
2021/11/13 02:28:27;;;;;;;17.58;13.02;;;9.10;99.90;;;;;;4950762;29;20646;-78
2021/11/13 02:30:59;;;;;;;14.57;12.75;;;9.00;99.90;;;;;;4956133;29;20246;-79
2021/11/13 02:33:26;;;;;;;19.67;14.57;;;9.10;99.90;;;;;;4943785;29;20255;-78
2021/11/13 02:35:54;;;;;;;19.33;13.70;;;9.00;99.90;;;;;;4951690;29;20674;-73
2021/11/13 02:38:25;;;;;;;19.83;15.32;;;8.90;99.90;;;;;;4953012;29;20211;-76
2021/11/13 02:41:27;;;;;;;17.92;14.70;;;8.90;99.90;;;;;;4950462;29;20202;-78
2021/11/13 02:43:54;;;;;;;17.83;13.10;;;8.90;99.90;;;;;;4950772;29;20689;-76
2021/11/13 02:46:22;;;;;;;19.40;13.48;;;8.80;99.90;;;;;;4944977;29;20219;-75
2021/11/13 02:48:50;;;;;;;18.88;14.93;;;8.80;99.90;;;;;;4955212;29;20230;-75
2021/11/13 02:51:18;;;;;;;21.83;15.65;;;8.70;99.90;;;;;;4946835;29;20239;-75
2021/11/13 02:53:51;;;;;;;18.85;15.20;;;8.70;99.90;;;;;;4955708;28;20246;-74
2021/11/13 02:56:19;;;;;;;22.23;15.23;;;8.80;99.90;;;;;;4946818;29;20302;-78
2021/11/13 02:58:46;;;;;;;19.58;13.23;;;8.80;99.90;;;;;;4944865;29;20242;-75
2021/11/13 03:01:16;;;;;;;20.05;14.68;;;8.80;99.90;;;;;;4937500;28;20199;-75
2021/11/13 03:03:43;;;;;;;19.17;14.70;;;8.80;99.90;;;;;;4958144;28;20202;-75
2021/11/13 03:06:13;;;;;;;20.10;15.70;;;8.80;99.90;;;;;;4955539;28;20776;-76
2021/11/13 03:08:41;;;;;;;22.55;16.02;;;8.70;99.90;;;;;;4952468;28;20203;-74
2021/11/13 03:11:13;;;;;;;23.92;16.00;;;8.60;99.90;;;;;;4949812;29;20206;-77
2021/11/13 03:13:42;;;;;;;22.58;16.90;;;8.60;99.90;;;;;;4949680;28;20725;-77
2021/11/13 03:16:11;;;;;;;23.55;15.82;;;8.70;99.90;;;;;;4947837;28;20768;-75
2021/11/13 03:18:39;;;;;;;26.42;17.33;;;8.70;99.90;;;;;;4936334;29;20287;-75
2021/11/13 03:21:07;;;;;;;22.63;15.40;;;8.50;99.90;;;;;;4948975;29;20206;-76
2021/11/13 03:23:35;;;;;;;23.15;16.70;;;8.50;99.90;;;;;;4951307;28;20278;-75
2021/11/13 03:26:07;;;;;;;27.08;16.23;;;8.50;99.90;;;;;;4941019;28;20282;-75
2021/11/13 03:28:39;;;;;;;27.17;18.83;;;8.60;99.90;;;;;;4956038;29;20195;-74
2021/11/13 03:31:07;;;;;;;23.48;16.70;;;8.50;99.90;;;;;;4946285;29;20726;-77
2021/11/13 03:33:36;;;;;;;23.60;17.00;;;8.50;99.90;;;;;;4951480;29;20187;-75
2021/11/13 03:36:04;;;;;;;26.33;19.00;;;8.50;99.90;;;;;;4960829;29;20250;-77
2021/11/13 03:38:31;;;;;;;27.30;18.50;;;8.60;99.90;;;;;;4955955;29;20695;-77
2021/11/13 03:40:58;;;;;;;26.67;20.02;;;8.50;99.90;;;;;;4949849;29;20257;-76
2021/11/13 03:43:26;;;;;;;29.52;20.05;;;8.40;99.90;;;;;;4943219;29;20255;-75
2021/11/13 03:45:54;;;;;;;29.77;19.70;;;8.40;99.90;;;;;;4944572;29;20289;-75
2021/11/13 03:48:21;;;;;;;29.65;21.25;;;8.50;99.90;;;;;;4935655;29;20218;-74
2021/11/13 03:50:49;;;;;;;33.17;20.35;;;8.40;99.90;;;;;;4950976;29;20289;-77
2021/11/13 03:53:16;;;;;;;28.63;19.42;;;8.40;99.90;;;;;;4948683;29;20199;-76
2021/11/13 03:55:44;;;;;;;29.08;19.98;;;8.40;99.90;;;;;;4939263;29;20255;-75
2021/11/13 03:58:11;;;;;;;29.02;20.30;;;8.40;99.90;;;;;;4940170;29;20207;-76
2021/11/13 04:00:38;;;;;;;28.55;20.25;;;8.50;99.90;;;;;;4951575;29;20208;-74
2021/11/13 04:03:06;;;;;;;35.58;23.67;;;8.40;99.90;;;;;;4945923;29;20649;-76
2021/11/13 04:05:34;;;;;;;30.67;22.00;;;8.30;99.90;;;;;;4953605;29;20207;-77
2021/11/13 04:08:03;;;;;;;29.92;21.42;;;8.30;99.90;;;;;;4946835;28;20203;-76
2021/11/13 04:10:30;;;;;;;30.20;20.15;;;8.30;99.90;;;;;;4944692;29;20203;-76
2021/11/13 04:12:57;;;;;;;28.33;21.15;;;8.40;99.90;;;;;;4947769;29;20599;-76
2021/11/13 04:15:24;;;;;;;31.10;22.55;;;8.40;99.90;;;;;;4941664;29;20243;-78
2021/11/13 04:17:52;;;;;;;32.58;22.30;;;8.30;99.90;;;;;;4955392;29;20254;-74
2021/11/13 04:20:21;;;;;;;35.30;21.10;;;8.40;99.90;;;;;;4946323;29;20634;-74
2021/11/13 04:22:50;;;;;;;34.17;21.63;;;8.30;99.90;;;;;;4953990;29;20602;-77
2021/11/13 04:25:18;;;;;;;37.15;21.92;;;8.20;99.90;;;;;;4953614;29;20235;-77
2021/11/13 04:27:46;;;;;;;26.65;19.67;;;8.30;99.90;;;;;;4952521;29;20562;-78
2021/11/13 04:30:14;;;;;;;30.55;21.77;;;8.40;99.90;;;;;;4943604;29;20242;-76
2021/11/13 04:32:42;;;;;;;31.70;21.55;;;8.40;99.90;;;;;;4948167;29;20212;-77
2021/11/13 04:35:17;;;;;;;35.60;22.38;;;8.40;99.90;;;;;;4952654;29;20286;-76
2021/11/13 04:37:49;;;;;;;28.23;20.92;;;8.40;99.90;;;;;;4953309;29;20206;-75
2021/11/13 04:40:18;;;;;;;29.20;20.85;;;8.50;99.90;;;;;;4949424;29;20203;-77
2021/11/13 04:42:45;;;;;;;34.35;22.60;;;8.50;99.90;;;;;;4954765;29;20759;-76
2021/11/13 04:45:12;;;;;;;27.83;19.90;;;8.50;99.90;;;;;;4942662;29;20297;-78
2021/11/13 04:47:39;;;;;;;36.00;23.88;;;8.40;99.90;;;;;;4949963;29;20295;-76
2021/11/13 04:50:10;;;;;;;33.00;23.17;;;8.30;99.90;;;;;;4942469;29;20206;-76
2021/11/13 04:52:37;;;;;;;39.70;24.27;;;8.40;99.90;;;;;;4951938;29;20227;-79
2021/11/13 04:55:06;;;;;;;27.98;18.90;;;8.30;99.90;;;;;;4942939;29;20215;-77
2021/11/13 04:57:33;;;;;;;27.83;18.08;;;8.40;99.90;;;;;;4946277;29;20254;-76
2021/11/13 05:00:00;;;;;;;28.65;21.25;;;8.30;99.90;;;;;;4950054;29;20292;-76
2021/11/13 05:02:27;;;;;;;29.73;20.20;;;8.40;99.90;;;;;;4948849;29;20558;-77
2021/11/13 05:04:55;;;;;;;34.85;19.50;;;8.40;99.90;;;;;;4948731;29;20286;-78
2021/11/13 05:07:23;;;;;;;32.13;20.02;;;8.40;99.90;;;;;;4952434;29;20231;-77
2021/11/13 05:09:51;;;;;;;29.80;20.48;;;8.40;99.90;;;;;;4954972;29;20608;-78
2021/11/13 05:12:19;;;;;;;26.05;19.23;;;8.40;99.90;;;;;;4941279;29;20231;-78
2021/11/13 05:14:46;;;;;;;29.95;20.15;;;8.40;99.90;;;;;;4956795;29;20264;-77
2021/11/13 05:17:13;;;;;;;27.55;20.27;;;8.30;99.90;;;;;;4948484;28;20304;-76
2021/11/13 05:19:41;;;;;;;29.38;20.40;;;8.30;99.90;;;;;;4957122;29;20743;-74
2021/11/13 05:22:09;;;;;;;29.73;18.60;;;8.30;99.90;;;;;;4963135;29;20289;-75
2021/11/13 05:24:36;;;;;;;25.90;18.77;;;8.40;99.90;;;;;;4956390;29;20213;-77
2021/11/13 05:27:05;;;;;;;24.40;18.00;;;8.30;99.90;;;;;;4955382;28;20233;-77
2021/11/13 05:29:34;;;;;;;28.73;18.58;;;8.30;99.90;;;;;;4957282;29;20195;-74
2021/11/13 05:32:01;;;;;;;25.02;17.88;;;8.40;99.90;;;;;;4940996;29;20295;-75
2021/11/13 05:34:28;;;;;;;28.98;19.98;;;8.30;99.90;;;;;;4956252;29;20306;-76
2021/11/13 05:36:57;;;;;;;28.45;19.35;;;8.20;99.90;;;;;;4971703;28;20238;-75
2021/11/13 05:39:24;;;;;;;21.02;17.25;;;8.20;99.90;;;;;;4956143;29;20243;-77
2021/11/13 05:41:51;;;;;;;21.00;16.98;;;8.10;99.90;;;;;;4947770;29;20684;-75
2021/11/13 05:44:18;;;;;;;26.02;17.67;;;8.20;99.90;;;;;;4959132;28;20554;-76
2021/11/13 05:46:50;;;;;;;26.30;19.35;;;8.10;99.90;;;;;;4946844;28;20318;-77
2021/11/13 05:49:18;;;;;;;25.42;16.92;;;8.10;99.90;;;;;;4952408;29;20518;-75
2021/11/13 05:51:45;;;;;;;27.30;17.85;;;8.10;99.90;;;;;;4951013;29;20233;-74
2021/11/13 05:54:12;;;;;;;23.35;16.75;;;8.20;99.90;;;;;;4948687;28;20234;-74
2021/11/13 05:56:39;;;;;;;23.02;18.25;;;8.20;99.90;;;;;;4949458;28;20223;-76
2021/11/13 05:59:06;;;;;;;23.40;16.42;;;8.20;99.90;;;;;;4953230;29;20203;-77
2021/11/13 06:01:34;;;;;;;26.63;18.23;;;8.20;99.90;;;;;;4947224;29;20207;-73
2021/11/13 06:04:02;;;;;;;26.80;19.02;;;8.20;99.90;;;;;;4953021;29;20226;-75
2021/11/13 06:06:29;;;;;;;25.42;17.05;;;8.20;99.90;;;;;;4946670;29;20699;-78
2021/11/13 06:08:56;;;;;;;25.80;19.08;;;8.20;99.90;;;;;;4952904;29;20725;-78
2021/11/13 06:11:24;;;;;;;25.55;17.70;;;8.20;99.90;;;;;;4943172;29;20251;-75
2021/11/13 06:13:51;;;;;;;24.77;18.60;;;8.20;99.90;;;;;;4953917;29;20199;-77
2021/11/13 06:16:18;;;;;;;22.70;16.45;;;8.20;99.90;;;;;;4943457;29;20227;-77
2021/11/13 06:18:45;;;;;;;24.65;16.92;;;8.20;99.90;;;;;;4957889;28;20202;-77
2021/11/13 06:21:15;;;;;;;28.70;16.02;;;8.20;99.90;;;;;;4952080;28;20306;-77
2021/11/13 06:23:45;;;;;;;25.98;17.60;;;8.20;99.90;;;;;;4955784;29;20719;-78
2021/11/13 06:26:13;;;;;;;22.38;16.70;;;8.20;99.90;;;;;;4946793;29;20701;-75
2021/11/13 06:28:40;;;;;;;20.90;16.98;;;8.20;99.90;;;;;;4943754;29;20260;-78
2021/11/13 06:31:07;;;;;;;23.23;17.83;;;8.20;99.90;;;;;;4950037;29;20242;-75
2021/11/13 06:33:35;;;;;;;25.23;16.55;;;8.20;99.90;;;;;;4945856;29;20670;-75
2021/11/13 06:36:02;;;;;;;25.70;17.70;;;8.20;99.90;;;;;;4953140;29;20230;-74
2021/11/13 06:38:30;;;;;;;21.65;15.30;;;8.20;99.90;;;;;;4945331;29;20199;-75
2021/11/13 06:40:57;;;;;;;20.98;15.63;;;8.30;99.90;;;;;;4941617;29;20729;-77
2021/11/13 06:43:24;;;;;;;19.08;14.88;;;8.30;99.90;;;;;;4942909;29;20261;-76
2021/11/13 06:45:51;;;;;;;18.63;14.57;;;8.40;99.90;;;;;;4943269;29;20685;-75
2021/11/13 06:48:20;;;;;;;23.65;14.38;;;8.40;99.90;;;;;;4955562;28;20230;-76
2021/11/13 06:50:47;;;;;;;22.33;18.08;;;8.30;99.90;;;;;;4956448;29;20203;-76
2021/11/13 06:53:15;;;;;;;23.23;17.23;;;8.40;99.90;;;;;;4945653;28;20234;-78
2021/11/13 06:55:43;;;;;;;24.95;15.90;;;8.40;99.90;;;;;;4941108;29;20237;-74
2021/11/13 06:58:11;;;;;;;26.75;18.63;;;8.30;99.90;;;;;;4954376;29;20210;-77
2021/11/13 07:00:38;;;;;;;21.30;15.18;;;8.50;99.90;;;;;;4949839;29;20693;-75
2021/11/13 07:03:06;;;;;;;19.63;15.27;;;8.50;99.90;;;;;;4956787;29;20297;-74
2021/11/13 07:05:33;;;;;;;18.83;14.27;;;8.50;99.90;;;;;;4948777;29;20226;-75
2021/11/13 07:08:00;;;;;;;20.58;14.32;;;8.50;99.90;;;;;;4953903;29;20226;-78
2021/11/13 07:10:28;;;;;;;23.52;14.73;;;8.50;99.90;;;;;;4940752;29;20235;-77
2021/11/13 07:12:56;;;;;;;21.17;15.43;;;8.40;99.90;;;;;;4951713;29;20657;-76
2021/11/13 07:15:24;;;;;;;27.27;14.30;;;8.40;99.90;;;;;;4945893;29;20237;-74
2021/11/13 07:17:52;;;;;;;21.92;15.23;;;8.40;99.90;;;;;;4943601;28;20665;-74
2021/11/13 07:20:20;;;;;;;17.17;14.32;;;8.40;99.90;;;;;;4949341;28;20204;-73
2021/11/13 07:22:47;;;;;;;19.95;15.95;;;8.40;99.90;;;;;;4955637;28;20227;-74
2021/11/13 07:25:15;;;;;;;22.98;17.33;;;8.50;99.90;;;;;;4952505;28;20265;-75
2021/11/13 07:27:45;;;;;;;20.27;15.07;;;8.40;99.90;;;;;;4954667;28;20214;-74
2021/11/13 07:30:17;;;;;;;20.27;15.23;;;8.40;99.90;;;;;;4954690;28;20229;-74
2021/11/13 07:32:44;;;;;;;20.35;14.10;;;8.40;99.90;;;;;;4962862;28;20210;-73
2021/11/13 07:35:11;;;;;;;19.88;15.30;;;8.40;99.90;;;;;;4949365;28;20226;-73
2021/11/13 07:37:38;;;;;;;20.27;14.68;;;8.50;99.90;;;;;;4967988;28;20269;-73
2021/11/13 07:40:07;;;;;;;21.65;15.70;;;8.60;99.90;;;;;;4973263;28;20233;-73
2021/11/13 07:42:34;;;;;;;17.70;14.32;;;8.50;99.90;;;;;;4942220;28;20203;-75
2021/11/13 07:45:04;;;;;;;16.10;11.93;;;8.60;99.90;;;;;;4955258;28;20251;-72
2021/11/13 07:47:35;;;;;;;18.55;13.90;;;8.60;99.90;;;;;;4958015;28;20282;-75
2021/11/13 07:50:02;;;;;;;21.10;12.88;;;8.60;99.90;;;;;;4959179;28;20219;-74
2021/11/13 07:52:29;;;;;;;20.15;14.95;;;8.50;99.90;;;;;;4968686;28;20250;-73
2021/11/13 07:54:56;;;;;;;15.50;13.25;;;8.50;99.90;;;;;;4957454;29;20205;-72
2021/11/13 07:57:24;;;;;;;17.65;14.23;;;8.60;99.90;;;;;;4952487;28;20259;-73
2021/11/13 07:59:51;;;;;;;25.17;13.82;;;8.60;99.90;;;;;;4965559;28;20628;-72
2021/11/13 08:02:18;;;;;;;19.20;13.63;;;8.70;99.90;;;;;;4955485;28;20218;-75
2021/11/13 08:04:47;;;;;;;15.65;11.90;;;8.50;99.90;;;;;;4953827;28;20693;-76
2021/11/13 08:07:14;;;;;;;17.85;13.35;;;8.60;99.90;;;;;;4957400;28;20269;-74
2021/11/13 08:09:41;;;;;;;18.58;12.27;;;8.60;99.90;;;;;;4950256;28;20235;-78
2021/11/13 08:12:09;;;;;;;18.35;12.95;;;8.50;99.90;;;;;;4948882;29;20234;-76
2021/11/13 08:14:36;;;;;;;18.67;13.05;;;8.50;99.90;;;;;;4952195;29;20250;-77
2021/11/13 08:17:03;;;;;;;18.50;12.82;;;8.50;99.90;;;;;;4947390;28;20227;-78
2021/11/13 08:19:32;;;;;;;18.88;13.73;;;8.60;99.90;;;;;;4956059;28;20203;-77
2021/11/13 08:22:00;;;;;;;17.02;12.88;;;8.60;99.90;;;;;;4953499;28;20210;-77
2021/11/13 08:24:27;;;;;;;18.38;12.90;;;8.50;99.90;;;;;;4958362;29;20215;-77
2021/11/13 08:26:54;;;;;;;19.80;12.88;;;8.50;99.90;;;;;;4956301;29;20235;-74
2021/11/13 08:29:21;;;;;;;17.75;13.27;;;8.60;99.90;;;;;;4957544;29;20381;-76
2021/11/13 08:31:48;;;;;;;18.63;13.55;;;8.70;99.90;;;;;;4957857;28;20246;-76
2021/11/13 08:34:16;;;;;;;16.17;12.57;;;8.60;99.90;;;;;;4959929;28;20601;-75
2021/11/13 08:36:43;;;;;;;19.48;14.88;;;8.70;99.90;;;;;;4946442;28;20238;-72
2021/11/13 08:39:12;;;;;;;19.70;13.80;;;8.70;99.90;;;;;;4948851;29;20307;-75
2021/11/13 08:41:39;;;;;;;19.35;12.77;;;8.70;99.90;;;;;;4949184;28;20257;-76
2021/11/13 08:44:06;;;;;;;17.15;11.73;;;8.70;99.90;;;;;;4949086;28;20301;-76
2021/11/13 08:46:34;;;;;;;13.95;11.93;;;8.70;99.90;;;;;;4954339;28;20227;-74
2021/11/13 08:49:02;;;;;;;16.48;12.82;;;8.70;99.90;;;;;;4948221;28;20207;-77
2021/11/13 08:51:29;;;;;;;17.88;12.40;;;8.80;99.90;;;;;;4963444;28;20289;-77
2021/11/13 08:53:56;;;;;;;23.27;13.50;;;8.80;99.90;;;;;;4954687;28;20291;-76
2021/11/13 08:56:26;;;;;;;17.10;12.20;;;8.80;99.90;;;;;;4943005;29;20227;-76
2021/11/13 08:58:54;;;;;;;19.65;12.07;;;8.90;99.90;;;;;;4946168;28;20207;-76
2021/11/13 09:01:27;;;;;;;16.27;11.85;;;8.90;99.90;;;;;;4947713;28;20211;-73
2021/11/13 09:03:54;;;;;;;18.77;11.30;;;9.00;99.90;;;;;;4944541;28;20221;-75
2021/11/13 09:06:24;;;;;;;17.98;13.10;;;8.90;99.90;;;;;;4953076;28;20290;-76
2021/11/13 09:08:52;;;;;;;21.75;14.32;;;9.00;99.90;;;;;;4951313;28;20215;-76
2021/11/13 09:11:23;;;;;;;17.70;12.95;;;9.10;99.90;;;;;;4953942;28;20199;-76
2021/11/13 09:13:52;;;;;;;17.65;12.55;;;9.10;99.90;;;;;;4956117;28;20253;-77
2021/11/13 09:16:20;;;;;;;20.55;13.25;;;9.00;99.90;;;;;;4943698;29;20302;-76
2021/11/13 09:18:48;;;;;;;20.88;13.07;;;9.00;99.90;;;;;;4948942;28;20210;-76
2021/11/13 09:21:16;;;;;;;20.02;13.77;;;9.10;99.90;;;;;;4962073;28;20206;-76
2021/11/13 09:23:43;;;;;;;19.40;12.82;;;9.30;99.90;;;;;;4956016;28;20652;-75
2021/11/13 09:26:11;;;;;;;18.27;12.85;;;9.10;99.90;;;;;;4958535;28;20705;-75
2021/11/13 09:28:38;;;;;;;14.13;11.65;;;9.10;99.90;;;;;;4954521;28;20219;-75
2021/11/13 09:31:08;;;;;;;16.02;13.07;;;9.20;99.90;;;;;;4949189;28;20206;-77
2021/11/13 09:33:35;;;;;;;16.67;11.10;;;9.20;99.90;;;;;;4962860;28;20325;-74
2021/11/13 09:36:02;;;;;;;13.75;10.90;;;9.30;99.90;;;;;;4961511;28;20768;-75
2021/11/13 09:38:32;;;;;;;19.83;14.18;;;9.30;99.90;;;;;;4962723;28;20204;-76
2021/11/13 09:41:01;;;;;;;19.55;14.05;;;9.40;99.90;;;;;;4956601;28;20607;-78
2021/11/13 09:43:29;;;;;;;23.10;14.73;;;9.30;99.90;;;;;;4953156;28;20215;-75
2021/11/13 09:45:58;;;;;;;19.80;13.20;;;9.20;99.90;;;;;;4962177;28;20230;-77
2021/11/13 09:48:29;;;;;;;21.15;13.90;;;9.30;99.90;;;;;;4960108;28;20199;-76
2021/11/13 09:51:00;;;;;;;18.33;12.68;;;9.20;99.90;;;;;;4955134;28;20906;-75
2021/11/13 09:53:28;;;;;;;19.55;15.15;;;9.30;99.90;;;;;;4955970;28;20208;-72
2021/11/13 09:55:57;;;;;;;19.63;13.18;;;9.40;99.90;;;;;;4954645;28;20760;-74
2021/11/13 09:58:25;;;;;;;17.83;12.63;;;9.50;99.90;;;;;;4952832;28;20203;-72
2021/11/13 10:00:53;;;;;;;19.52;13.20;;;9.60;99.90;;;;;;4960410;28;20346;-74
2021/11/13 10:03:21;;;;;;;23.15;13.50;;;9.70;99.90;;;;;;4961936;28;20199;-74
2021/11/13 10:05:51;;;;;;;17.88;13.45;;;9.60;99.90;;;;;;4959931;28;20258;-73
2021/11/13 10:08:19;;;;;;;20.27;13.63;;;9.60;99.90;;;;;;4955271;28;20199;-75
2021/11/13 10:10:47;;;;;;;18.13;12.60;;;9.70;99.90;;;;;;4953929;28;20305;-75
2021/11/13 10:13:31;;;;;;;17.50;13.35;;;9.70;99.90;;;;;;4959970;28;20194;-74
2021/11/13 10:16:00;;;;;;;18.27;12.05;;;9.70;99.90;;;;;;4958560;28;20264;-72
2021/11/13 10:18:29;;;;;;;17.35;13.80;;;9.70;99.90;;;;;;4959690;28;20209;-77
2021/11/13 10:21:12;;;;;;;17.80;13.32;;;9.70;99.90;;;;;;4954138;28;20340;-74
2021/11/13 10:23:43;;;;;;;20.95;13.23;;;9.70;99.90;;;;;;4955910;28;20704;-73
2021/11/13 10:26:15;;;;;;;18.02;12.20;;;9.70;99.90;;;;;;4958624;28;20254;-73
2021/11/13 10:28:48;;;;;;;19.17;12.90;;;9.80;99.90;;;;;;4955470;28;20223;-76
2021/11/13 10:31:18;;;;;;;23.95;14.98;;;9.80;99.90;;;;;;4954119;28;20563;-75
2021/11/13 10:33:46;;;;;;;15.43;12.32;;;9.80;99.90;;;;;;4953911;28;20207;-74
2021/11/13 10:36:21;;;;;;;16.17;13.30;;;9.90;99.90;;;;;;4945131;28;20234;-74
2021/11/13 10:38:55;;;;;;;22.75;14.85;;;9.90;99.90;;;;;;4951400;28;20202;-72
2021/11/13 10:41:22;;;;;;;17.08;13.23;;;9.90;99.90;;;;;;4944809;28;20253;-74
2021/11/13 10:43:50;;;;;;;22.30;14.90;;;9.80;99.90;;;;;;4950403;28;20303;-74
2021/11/13 10:46:20;;;;;;;21.08;13.63;;;9.90;99.90;;;;;;4955558;28;20234;-75
2021/11/13 10:48:50;;;;;;;18.83;13.35;;;10.00;99.90;;;;;;4948048;28;20199;-76
2021/11/13 10:51:20;;;;;;;16.13;13.10;;;10.00;99.90;;;;;;4947923;28;20715;-73
2021/11/13 10:53:49;;;;;;;21.20;13.35;;;10.00;99.90;;;;;;4947336;28;20196;-74
2021/11/13 10:56:18;;;;;;;24.83;13.27;;;9.90;99.90;;;;;;4953889;28;20280;-76
2021/11/13 10:58:53;;;;;;;17.90;13.10;;;10.10;99.90;;;;;;4964094;28;20235;-73
2021/11/13 11:01:37;;;;;;;19.13;13.10;;;10.30;99.90;;;;;;4951141;28;20626;-75
2021/11/13 11:04:13;;;;;;;17.65;12.85;;;10.40;99.90;;;;;;4956747;28;20223;-75
2021/11/13 11:06:45;;;;;;;15.88;11.63;;;10.50;99.90;;;;;;4948791;28;20233;-74
2021/11/13 11:09:25;;;;;;;14.32;10.32;;;10.80;99.90;;;;;;4951828;28;20201;-73
2021/11/13 11:11:55;;;;;;;15.60;12.23;;;10.90;99.90;;;;;;4960076;28;20221;-74
2021/11/13 11:14:25;;;;;;;16.40;11.77;;;11.00;99.90;;;;;;4960976;28;20203;-73
2021/11/13 11:16:58;;;;;;;13.88;11.35;;;11.00;99.90;;;;;;4956572;28;20239;-76
2021/11/13 11:19:31;;;;;;;15.48;12.15;;;11.10;99.90;;;;;;4959429;28;20678;-74
2021/11/13 11:22:05;;;;;;;20.77;12.50;;;11.30;99.90;;;;;;4961961;28;20204;-78
2021/11/13 11:27:29;;;;;;;21.50;15.40;;;11.50;99.90;;;;;;4951078;28;20223;-76
2021/11/13 11:30:00;;;;;;;17.33;12.70;;;11.00;99.90;;;;;;4963014;28;20619;-76
2021/11/13 11:32:30;;;;;;;15.73;13.23;;;11.00;99.90;;;;;;4954137;28;20892;-71
2021/11/13 11:35:21;;;;;;;16.95;12.45;;;10.90;99.90;;;;;;4955678;28;20281;-80
2021/11/13 11:38:06;;;;;;;18.80;12.63;;;11.10;99.90;;;;;;4956127;29;20236;-82
2021/11/13 11:40:37;;;;;;;18.42;13.10;;;11.10;99.90;;;;;;4956975;28;20258;-75
2021/11/13 11:43:14;;;;;;;13.40;11.20;;;11.20;99.90;;;;;;4949369;28;20207;-80
2021/11/13 11:45:44;;;;;;;15.02;11.68;;;11.20;99.90;;;;;;4948103;28;20231;-75
2021/11/13 11:48:20;;;;;;;17.23;14.10;;;11.30;99.90;;;;;;4965435;28;20248;-77
2021/11/13 11:50:58;;;;;;;21.05;15.30;;;11.10;99.90;;;;;;4965977;28;20231;-75
2021/11/13 11:53:28;;;;;;;20.65;13.85;;;11.00;99.90;;;;;;4954963;28;20286;-76
2021/11/13 11:56:31;;;;;;;;;;;;;;;;;;;;;
2021/11/13 12:01:44;;;;;;;19.52;11.90;;;11.10;99.90;;;;;;4964435;28;20213;-76
2021/11/13 12:04:26;;;;;;;16.38;10.93;;;11.20;99.90;;;;;;4968388;28;20202;-76
2021/11/13 12:07:03;;;;;;;19.73;14.55;;;11.30;99.90;;;;;;4961175;28;20351;-76
2021/11/13 12:10:13;;;;;;;17.40;13.05;;;11.20;99.90;;;;;;4962310;28;20198;-74
2021/11/13 12:12:44;;;;;;;21.15;13.02;;;11.30;99.90;;;;;;4973071;28;20211;-75
2021/11/13 12:15:24;;;;;;;18.33;13.00;;;11.30;99.90;;;;;;4966443;28;20234;-78
2021/11/13 12:18:19;;;;;;;19.98;15.25;;;11.30;99.90;;;;;;4964085;28;20217;-75
2021/11/13 12:20:49;;;;;;;23.30;13.70;;;11.10;99.90;;;;;;4951442;28;20207;-75
2021/11/13 12:24:13;;;;;;;20.30;13.80;;;11.00;99.90;;;;;;4968339;28;20657;-76
2021/11/13 12:26:59;;;;;;;17.98;14.13;;;11.00;99.90;;;;;;4955438;28;20263;-76
2021/11/13 12:30:02;;;;;;;17.42;13.13;;;11.00;99.90;;;;;;4948951;28;20195;-80
2021/11/13 12:32:38;;;;;;;13.93;11.80;;;10.90;99.90;;;;;;4949160;28;20688;-77
2021/11/13 12:35:23;;;;;;;18.00;12.73;;;11.00;99.90;;;;;;4955956;28;20244;-76
2021/11/13 12:37:51;;;;;;;16.48;12.95;;;11.00;99.90;;;;;;4966104;28;20217;-78
2021/11/13 12:44:19;;;;;;;20.02;13.00;;;10.90;99.90;;;;;;4951238;28;20530;-78
2021/11/13 12:47:28;;;;;;;15.48;11.88;;;10.90;99.90;;;;;;4956561;28;20705;-77
2021/11/13 12:50:04;;;;;;;19.13;12.93;;;11.00;99.90;;;;;;4962014;28;20203;-76
2021/11/13 12:56:01;;;;;;;17.75;13.32;;;11.00;99.90;;;;;;4951441;28;20231;-77
2021/11/13 12:58:34;;;;;;;18.20;13.55;;;11.00;99.90;;;;;;4961515;28;20202;-79
2021/11/13 13:04:16;;;;;;;18.38;14.00;;;11.10;99.90;;;;;;4953755;28;20211;-78